createdAt,value
2023-11-14T00:02:21.899Z,4.53
2023-11-14T00:04:51.597Z,4.93
2023-11-14T00:07:18.379Z,4.17
2023-11-14T00:09:47.329Z,4.40
2023-11-14T00:12:21.920Z,4.80
2023-11-14T00:14:49.393Z,4.80
2023-11-14T00:17:16.402Z,5.70
2023-11-14T00:19:44.594Z,4.33
2023-11-14T00:22:15.922Z,5.10
2023-11-14T00:24:48.293Z,4.80
2023-11-14T00:27:15.771Z,4.20
2023-11-14T00:29:42.927Z,4.57
2023-11-14T00:32:09.773Z,4.73
2023-11-14T00:34:36.789Z,5.30
2023-11-14T00:37:03.701Z,5.20
2023-11-14T00:39:31.095Z,4.40
2023-11-14T00:41:57.742Z,4.80
2023-11-14T00:44:27.529Z,4.57
2023-11-14T00:46:54.334Z,3.73
2023-11-14T00:49:21.189Z,4.57
2023-11-14T00:51:47.887Z,5.20
2023-11-14T00:54:14.675Z,4.47
2023-11-14T00:56:41.354Z,5.87
2023-11-14T00:59:09.499Z,5.70
2023-11-14T01:01:38.376Z,4.93
2023-11-14T01:04:06.696Z,5.40
2023-11-14T01:06:33.439Z,4.00
2023-11-14T01:09:01.779Z,4.87
2023-11-14T01:11:28.557Z,5.60
2023-11-14T01:13:55.354Z,4.77
2023-11-14T01:16:24.919Z,5.40
2023-11-14T01:18:51.658Z,5.03
2023-11-14T01:21:18.674Z,5.67
2023-11-14T01:23:48.772Z,4.30
2023-11-14T01:26:18.606Z,4.63
2023-11-14T01:28:45.415Z,4.87
2023-11-14T01:31:22.834Z,4.83
2023-11-14T01:33:49.812Z,4.63
2023-11-14T01:36:16.716Z,5.87
2023-11-14T01:38:43.571Z,5.30
2023-11-14T01:41:10.395Z,5.50
2023-11-14T01:43:47.441Z,4.83
2023-11-14T01:46:19.226Z,5.00
2023-11-14T01:48:49.771Z,4.27
2023-11-14T01:51:18.332Z,5.40
2023-11-14T01:53:52.852Z,5.50
2023-11-14T01:56:20.605Z,4.27
2023-11-14T01:58:49.882Z,4.63
2023-11-14T02:01:17.503Z,4.23
2023-11-14T02:03:44.983Z,4.53
2023-11-14T02:06:11.833Z,4.57
2023-11-14T02:08:39.364Z,4.80
2023-11-14T02:11:07.005Z,4.90
2023-11-14T02:13:35.030Z,4.37
2023-11-14T02:16:02.083Z,4.83
2023-11-14T02:18:29.141Z,4.80
2023-11-14T02:20:55.910Z,4.13
2023-11-14T02:23:26.208Z,4.97
2023-11-14T02:25:53.158Z,4.57
2023-11-14T02:28:19.912Z,4.50
2023-11-14T02:30:47.344Z,3.97
2023-11-14T02:33:16.669Z,4.40
2023-11-14T02:35:43.553Z,4.80
2023-11-14T02:38:10.520Z,4.97
2023-11-14T02:40:38.252Z,4.80
2023-11-14T02:43:05.022Z,4.73
2023-11-14T02:45:31.762Z,5.30
2023-11-14T02:47:58.660Z,4.67
2023-11-14T02:50:53.747Z,5.00
2023-11-14T02:53:24.382Z,5.27
2023-11-14T02:55:54.915Z,4.57
2023-11-14T02:58:21.636Z,4.90
2023-11-14T03:00:53.412Z,4.20
2023-11-14T03:03:21.067Z,4.37
2023-11-14T03:05:48.375Z,4.00
2023-11-14T03:08:18.065Z,3.57
2023-11-14T03:10:45.510Z,5.03
2023-11-14T03:13:12.498Z,3.77
2023-11-14T03:15:39.427Z,4.20
2023-11-14T03:18:06.625Z,5.57
2023-11-14T03:20:36.825Z,4.07
2023-11-14T03:23:05.149Z,5.10
2023-11-14T03:25:32.227Z,4.27
2023-11-14T03:28:00.564Z,4.07
2023-11-14T03:30:28.070Z,5.03
2023-11-14T03:32:55.780Z,4.00
2023-11-14T03:35:22.836Z,4.83
2023-11-14T03:37:49.543Z,4.73
2023-11-14T03:40:16.296Z,4.90
2023-11-14T03:42:43.148Z,4.33
2023-11-14T03:45:12.803Z,4.47
2023-11-14T03:47:39.524Z,5.70
2023-11-14T03:50:08.997Z,4.90
2023-11-14T03:52:35.961Z,5.13
2023-11-14T03:55:03.552Z,5.03
2023-11-14T03:57:30.586Z,5.40
2023-11-14T03:59:57.390Z,4.13
2023-11-14T04:02:24.333Z,5.10
2023-11-14T04:04:51.215Z,4.50
2023-11-14T04:07:18.044Z,4.43
2023-11-14T04:09:44.868Z,4.40
2023-11-14T04:12:13.614Z,4.30
2023-11-14T04:14:40.439Z,4.80
2023-11-14T04:17:07.244Z,4.10
2023-11-14T04:19:35.416Z,4.90
2023-11-14T04:22:02.377Z,5.57
2023-11-14T04:24:29.465Z,4.57
2023-11-14T04:27:02.867Z,4.73
2023-11-14T04:29:29.578Z,5.00
2023-11-14T04:31:57.265Z,4.20
2023-11-14T04:34:24.081Z,5.50
2023-11-14T04:36:50.797Z,4.13
2023-11-14T04:39:20.432Z,5.23
2023-11-14T04:41:47.162Z,4.70
2023-11-14T04:44:13.890Z,4.87
2023-11-14T04:46:45.427Z,4.57
2023-11-14T04:49:12.557Z,4.87
2023-11-14T04:51:39.235Z,4.33
2023-11-14T04:54:06.045Z,4.10
2023-11-14T04:56:32.771Z,5.73
2023-11-14T04:58:59.609Z,3.90
2023-11-14T05:01:26.634Z,4.83
2023-11-14T05:03:53.645Z,4.37
2023-11-14T05:06:20.563Z,4.87
2023-11-14T05:08:47.332Z,4.70
2023-11-14T05:11:14.366Z,6.03
2023-11-14T05:13:41.626Z,3.60
2023-11-14T05:16:15.701Z,4.20
2023-11-14T05:18:48.912Z,4.43
2023-11-14T05:21:18.389Z,4.50
2023-11-14T05:23:45.173Z,4.07
2023-11-14T05:26:11.985Z,5.37
2023-11-14T05:28:39.615Z,4.57
2023-11-14T05:31:06.631Z,3.97
2023-11-14T05:33:33.540Z,4.17
2023-11-14T05:36:03.656Z,4.80
2023-11-14T05:38:31.124Z,5.07
2023-11-14T05:40:58.222Z,4.60
2023-11-14T05:43:29.699Z,5.00
2023-11-14T05:45:56.686Z,5.07
2023-11-14T05:48:24.071Z,4.50
2023-11-14T05:50:54.127Z,4.33
2023-11-14T05:53:21.030Z,4.43
2023-11-14T05:55:47.780Z,5.17
2023-11-14T05:58:14.754Z,5.53
2023-11-14T06:00:44.189Z,4.10
2023-11-14T06:03:10.961Z,4.80
2023-11-14T06:05:37.827Z,4.57
2023-11-14T06:08:05.065Z,3.90
2023-11-14T06:10:32.416Z,4.20
2023-11-14T06:12:59.718Z,4.77
2023-11-14T06:15:27.942Z,5.00
2023-11-14T06:17:55.124Z,5.33
2023-11-14T06:22:51.513Z,4.83
2023-11-14T06:25:21.471Z,4.77
2023-11-14T06:27:48.241Z,4.30
2023-11-14T06:30:17.882Z,4.50
2023-11-14T06:32:46.288Z,5.83
2023-11-14T06:35:13.291Z,4.60
2023-11-14T06:37:40.152Z,4.67
2023-11-14T06:40:07.755Z,5.27
2023-11-14T06:42:37.523Z,5.57
2023-11-14T06:45:05.783Z,3.73
2023-11-14T06:47:33.076Z,4.20
2023-11-14T06:49:59.852Z,5.37
2023-11-14T06:52:26.733Z,4.30
2023-11-14T06:54:53.443Z,4.70
2023-11-14T06:57:21.391Z,5.23
2023-11-14T06:59:48.206Z,4.30
2023-11-14T07:02:17.847Z,4.20
2023-11-14T07:04:44.680Z,4.97
2023-11-14T07:07:11.480Z,4.17
2023-11-14T07:09:38.269Z,4.73
2023-11-14T07:12:05.400Z,4.47
2023-11-14T07:14:32.374Z,3.87
2023-11-14T07:16:59.277Z,3.93
2023-11-14T07:19:26.198Z,3.90
2023-11-14T07:21:52.973Z,3.53
2023-11-14T07:24:19.653Z,3.60
2023-11-14T07:26:46.438Z,4.77
2023-11-14T07:29:14.400Z,4.00
2023-11-14T07:31:43.301Z,4.93
2023-11-14T07:34:13.000Z,4.37
2023-11-14T07:36:39.971Z,4.43
2023-11-14T07:39:07.031Z,4.10
2023-11-14T07:41:36.609Z,3.57
2023-11-14T07:44:10.697Z,3.83
2023-11-14T07:46:38.938Z,4.07
2023-11-14T07:49:06.236Z,4.17
2023-11-14T07:51:33.495Z,4.33
2023-11-14T07:54:00.324Z,4.20
2023-11-14T07:56:27.071Z,4.60
2023-11-14T07:59:00.603Z,4.30
2023-11-14T08:01:27.300Z,4.90
2023-11-14T08:03:54.058Z,6.13
2023-11-14T08:06:20.995Z,3.97
2023-11-14T08:08:49.908Z,4.37
2023-11-14T08:11:17.511Z,5.07
2023-11-14T08:13:47.099Z,4.10
2023-11-14T08:16:13.775Z,5.53
2023-11-14T08:18:40.787Z,4.70
2023-11-14T08:21:11.080Z,4.70
2023-11-14T08:23:37.901Z,4.30
2023-11-14T08:26:04.860Z,3.93
2023-11-14T08:28:31.537Z,4.20
2023-11-14T08:30:58.254Z,4.90
2023-11-14T08:33:27.378Z,5.20
2023-11-14T08:35:54.036Z,4.67
2023-11-14T08:38:21.789Z,3.87
2023-11-14T08:40:49.196Z,4.97
2023-11-14T08:43:18.855Z,5.03
2023-11-14T08:45:45.612Z,4.67
2023-11-14T08:48:12.314Z,4.67
2023-11-14T08:50:40.244Z,4.27
2023-11-14T08:53:07.716Z,4.70
2023-11-14T08:55:34.882Z,4.03
2023-11-14T08:58:01.571Z,3.70
2023-11-14T09:00:28.785Z,4.47
2023-11-14T09:02:55.518Z,4.27
2023-11-14T09:05:24.720Z,5.27
2023-11-14T09:07:54.235Z,4.13
2023-11-14T09:10:20.908Z,4.00
2023-11-14T09:12:49.101Z,4.33
2023-11-14T09:15:18.667Z,4.73
2023-11-14T09:17:48.076Z,5.03
2023-11-14T09:20:18.647Z,4.60
2023-11-14T09:22:48.572Z,4.83
2023-11-14T09:25:18.711Z,5.67
2023-11-14T09:27:46.157Z,4.60
2023-11-14T09:30:19.063Z,4.70
2023-11-14T09:32:47.413Z,4.70
2023-11-14T09:35:16.528Z,4.80
2023-11-14T09:37:43.736Z,4.40
2023-11-14T09:40:14.856Z,4.60
2023-11-14T09:42:41.919Z,4.43
2023-11-14T09:45:12.012Z,4.53
2023-11-14T09:47:38.834Z,5.40
2023-11-14T09:50:06.375Z,5.13
2023-11-14T09:52:33.326Z,4.63
2023-11-14T09:55:00.224Z,5.77
2023-11-14T09:57:27.177Z,4.87
2023-11-14T09:59:54.846Z,5.20
2023-11-14T10:02:21.706Z,4.90
2023-11-14T10:04:48.481Z,5.23
2023-11-14T10:07:18.901Z,5.60
2023-11-14T10:09:47.155Z,5.33
2023-11-14T10:12:37.725Z,4.93
2023-11-14T10:15:06.170Z,4.50
2023-11-14T10:17:47.917Z,4.70
2023-11-14T10:20:22.822Z,5.23
2023-11-14T10:23:04.812Z,4.77
2023-11-14T10:25:34.779Z,4.43
2023-11-14T10:28:07.040Z,4.57
2023-11-14T10:30:51.113Z,3.87
2023-11-14T10:33:18.313Z,4.63
2023-11-14T10:35:46.479Z,4.50
2023-11-14T10:38:22.348Z,4.07
2023-11-14T10:40:55.339Z,4.97
2023-11-14T10:43:30.600Z,4.80
2023-11-14T10:45:59.753Z,5.67
2023-11-14T10:48:27.458Z,4.73
2023-11-14T10:50:54.377Z,4.50
2023-11-14T10:53:22.158Z,3.60
2023-11-14T10:55:51.487Z,4.13
2023-11-14T10:58:20.273Z,3.93
2023-11-14T11:00:48.106Z,3.77
2023-11-14T11:03:21.693Z,3.70
2023-11-14T11:05:48.844Z,3.70
2023-11-14T11:08:18.559Z,3.73
2023-11-14T11:10:45.780Z,3.47
2023-11-14T11:13:24.375Z,4.37
2023-11-14T11:15:55.568Z,3.70
2023-11-14T11:18:26.887Z,4.60
2023-11-14T11:21:10.249Z,4.20
2023-11-14T11:24:11.878Z,4.63
2023-11-14T11:27:06.819Z,4.67
2023-11-14T11:29:46.916Z,4.80
2023-11-14T11:32:24.539Z,4.57
2023-11-14T11:35:17.130Z,3.93
2023-11-14T11:37:53.566Z,4.50
2023-11-14T11:40:29.048Z,4.50
2023-11-14T11:43:11.088Z,4.50
2023-11-14T11:45:42.699Z,4.13
2023-11-14T11:48:30.777Z,4.93
2023-11-14T11:51:19.250Z,4.27
2023-11-14T11:53:46.554Z,4.23
2023-11-14T11:56:33.707Z,4.57
2023-11-14T11:59:00.518Z,3.87
2023-11-14T12:01:27.357Z,3.70
2023-11-14T12:04:01.316Z,4.20
2023-11-14T12:06:28.975Z,4.00
2023-11-14T12:08:56.534Z,4.13
2023-11-14T12:11:25.768Z,4.13
2023-11-14T12:13:56.975Z,3.13
2023-11-14T12:16:24.590Z,3.50
2023-11-14T12:18:51.430Z,3.40
2023-11-14T12:21:19.329Z,2.90
2023-11-14T12:23:46.859Z,2.77
2023-11-14T12:26:15.488Z,2.73
2023-11-14T12:28:42.821Z,2.40
2023-11-14T12:31:10.518Z,2.10
2023-11-14T12:33:47.010Z,2.60
2023-11-14T12:36:24.121Z,2.10
2023-11-14T12:38:52.543Z,3.07
2023-11-14T12:41:20.050Z,1.80
2023-11-14T12:44:09.026Z,1.73
2023-11-14T12:46:40.769Z,1.60
2023-11-14T12:49:20.494Z,1.40
2023-11-14T12:51:53.301Z,1.40
2023-11-14T12:54:24.861Z,1.40
2023-11-14T12:56:52.877Z,1.50
2023-11-14T12:59:22.863Z,1.67
2023-11-14T13:01:50.596Z,1.60
2023-11-14T13:04:18.134Z,1.50
2023-11-14T13:06:50.908Z,1.43
2023-11-14T13:09:18.578Z,2.00
2023-11-14T13:11:45.619Z,1.90
2023-11-14T13:14:16.279Z,2.00
2023-11-14T13:16:44.465Z,1.80
2023-11-14T13:19:12.508Z,2.03
2023-11-14T13:21:42.686Z,1.93
2023-11-14T13:24:09.584Z,2.17
2023-11-14T13:26:39.240Z,2.50
2023-11-14T13:29:07.202Z,2.70
2023-11-14T13:31:34.141Z,1.90
2023-11-14T13:34:00.974Z,1.97
2023-11-14T13:36:28.956Z,2.63
2023-11-14T13:38:56.174Z,2.20
2023-11-14T13:41:23.002Z,1.90
2023-11-14T13:43:50.342Z,1.90
2023-11-14T13:46:24.509Z,2.30
2023-11-14T13:48:59.124Z,1.93
2023-11-14T13:51:26.310Z,2.30
2023-11-14T13:53:56.303Z,2.33
2023-11-14T13:56:23.382Z,2.27
2023-11-14T13:58:50.408Z,2.43
2023-11-14T14:01:18.282Z,1.90
2023-11-14T14:03:45.804Z,2.40
2023-11-14T14:06:14.099Z,2.00
2023-11-14T14:08:41.143Z,2.57
2023-11-14T14:11:09.593Z,2.13
2023-11-14T14:13:36.794Z,1.93
2023-11-14T14:16:04.638Z,1.50
2023-11-14T14:18:32.744Z,1.70
2023-11-14T14:21:05.039Z,1.67
2023-11-14T14:23:34.059Z,1.60
2023-11-14T14:26:01.744Z,1.70
2023-11-14T14:28:35.086Z,1.73
2023-11-14T14:31:06.145Z,1.47
2023-11-14T14:33:33.388Z,1.63
2023-11-14T14:36:00.279Z,1.70
2023-11-14T14:38:27.356Z,1.70
2023-11-14T14:40:54.287Z,1.37
2023-11-14T14:43:23.242Z,1.63
2023-11-14T14:45:51.889Z,1.80
2023-11-14T14:48:20.145Z,1.57
2023-11-14T14:50:46.851Z,1.23
2023-11-14T14:53:13.670Z,1.70
2023-11-14T14:55:40.741Z,1.40
2023-11-14T14:58:11.062Z,1.57
2023-11-14T15:00:37.902Z,1.10
2023-11-14T15:03:04.938Z,1.50
2023-11-14T15:05:37.761Z,1.20
2023-11-14T15:08:07.417Z,1.47
2023-11-14T15:10:34.777Z,1.27
2023-11-14T15:13:01.714Z,1.57
2023-11-14T15:15:28.641Z,1.23
2023-11-14T15:17:58.079Z,1.20
2023-11-14T15:20:25.709Z,1.20
2023-11-14T15:22:57.546Z,1.53
2023-11-14T15:25:24.277Z,1.10
2023-11-14T15:27:51.070Z,1.40
2023-11-14T15:30:17.837Z,1.50
2023-11-14T15:32:45.700Z,1.40
2023-11-14T15:35:15.019Z,1.17
2023-11-14T15:37:41.974Z,1.30
2023-11-14T15:40:11.144Z,1.83
2023-11-14T15:42:39.762Z,0.93
2023-11-14T15:45:07.340Z,1.70
2023-11-14T15:47:37.041Z,1.57
2023-11-14T15:50:07.396Z,1.50
2023-11-14T15:52:34.303Z,1.53
2023-11-14T15:55:03.410Z,1.17
2023-11-14T15:57:30.097Z,1.43
2023-11-14T15:59:56.944Z,1.50
2023-11-14T16:02:23.662Z,1.37
2023-11-14T16:04:50.482Z,1.63
2023-11-14T16:07:17.333Z,1.53
2023-11-14T16:09:44.101Z,2.50
2023-11-14T16:12:10.860Z,1.90
2023-11-14T16:14:38.440Z,2.03
2023-11-14T16:17:05.680Z,2.30
2023-11-14T16:19:37.925Z,2.50
2023-11-14T16:22:06.323Z,2.00
2023-11-14T16:24:35.974Z,2.57
2023-11-14T16:27:02.665Z,2.20
2023-11-14T16:29:29.510Z,2.40
2023-11-14T16:31:56.687Z,2.63
2023-11-14T16:34:23.685Z,2.50
2023-11-14T16:36:50.550Z,3.10
2023-11-14T16:39:17.244Z,2.70
2023-11-14T16:41:47.071Z,2.70
2023-11-14T16:44:13.949Z,2.57
2023-11-14T16:46:40.831Z,2.57
2023-11-14T16:49:10.047Z,3.37
2023-11-14T16:51:36.861Z,2.23
2023-11-14T16:54:04.021Z,2.37
2023-11-14T16:56:31.938Z,3.20
2023-11-14T16:59:00.605Z,2.30
2023-11-14T17:01:29.350Z,2.13
2023-11-14T17:03:59.110Z,2.30
2023-11-14T17:06:26.180Z,2.23
2023-11-14T17:08:55.263Z,2.00
2023-11-14T17:11:22.805Z,2.30
2023-11-14T17:13:51.158Z,1.77
2023-11-14T17:16:18.311Z,2.07
2023-11-14T17:18:45.135Z,2.37
2023-11-14T17:21:12.364Z,1.93
2023-11-14T17:23:40.770Z,1.70
2023-11-14T17:26:07.723Z,2.57
2023-11-14T17:28:35.845Z,1.97
2023-11-14T17:31:05.702Z,2.23
2023-11-14T17:33:32.402Z,2.23
2023-11-14T17:35:59.292Z,2.47
2023-11-14T17:38:27.226Z,2.27
2023-11-14T17:40:53.922Z,1.90
2023-11-14T17:43:20.665Z,1.90
2023-11-14T17:45:48.745Z,1.90
2023-11-14T17:48:20.304Z,2.10
2023-11-14T17:50:47.582Z,1.77
2023-11-14T17:53:14.669Z,2.10
2023-11-14T17:55:41.542Z,1.83
2023-11-14T17:58:08.381Z,1.57
2023-11-14T18:00:36.343Z,1.87
2023-11-14T18:03:03.375Z,1.80
2023-11-14T18:05:30.533Z,1.53
2023-11-14T18:07:58.958Z,1.50
2023-11-14T18:10:25.843Z,1.43
2023-11-14T18:12:52.561Z,1.77
2023-11-14T18:15:19.403Z,1.77
2023-11-14T18:17:46.902Z,1.47
2023-11-14T18:20:17.640Z,1.90
2023-11-14T18:22:44.457Z,2.03
2023-11-14T18:25:11.482Z,2.27
2023-11-14T18:27:38.177Z,2.27
2023-11-14T18:30:05.949Z,2.47
2023-11-14T18:32:35.202Z,2.50
2023-11-14T18:35:03.967Z,2.13
2023-11-14T18:37:31.016Z,2.00
2023-11-14T18:39:57.675Z,2.70
2023-11-14T18:42:24.444Z,2.50
2023-11-14T18:45:01.986Z,2.17
2023-11-14T18:47:34.982Z,2.60
2023-11-14T18:50:02.125Z,2.37
2023-11-14T18:52:29.672Z,2.10
2023-11-14T18:55:00.160Z,2.00
2023-11-14T18:57:27.842Z,2.10
2023-11-14T18:59:55.213Z,2.07
2023-11-14T19:02:26.003Z,1.80
2023-11-14T19:04:53.542Z,2.00
2023-11-14T19:07:21.189Z,1.93
2023-11-14T19:09:48.968Z,2.27
2023-11-14T19:12:20.809Z,1.70
2023-11-14T19:14:51.032Z,1.20
2023-11-14T19:17:19.435Z,1.50
2023-11-14T19:19:46.180Z,1.70
2023-11-14T19:22:39.901Z,1.20
2023-11-14T19:25:02.300Z,1.20
2023-11-14T19:27:32.001Z,1.20
2023-11-14T19:30:01.599Z,1.23
2023-11-14T19:32:30.204Z,0.87
2023-11-14T19:34:56.909Z,1.20
2023-11-14T19:37:23.769Z,1.10
2023-11-14T19:39:50.559Z,1.20
2023-11-14T19:42:19.418Z,1.33
2023-11-14T19:44:48.538Z,0.73
2023-11-14T19:47:18.510Z,1.10
2023-11-14T19:49:46.092Z,0.93
2023-11-14T19:52:16.487Z,1.10
2023-11-14T19:54:47.595Z,1.00
2023-11-14T19:57:16.711Z,1.27
2023-11-14T19:59:43.630Z,1.17
2023-11-14T20:02:10.715Z,1.43
2023-11-14T20:04:37.840Z,1.83
2023-11-14T20:07:04.767Z,0.83
2023-11-14T20:09:31.596Z,1.00
2023-11-14T20:11:58.550Z,1.20
2023-11-14T20:14:25.525Z,1.63
2023-11-14T20:16:52.610Z,1.60
2023-11-14T20:19:19.524Z,1.07
2023-11-14T20:21:46.524Z,1.20
2023-11-14T20:24:13.308Z,1.40
2023-11-14T20:26:43.061Z,1.83
2023-11-14T20:29:10.047Z,1.80
2023-11-14T20:31:37.033Z,1.57
2023-11-14T20:34:04.389Z,1.93
2023-11-14T20:36:34.124Z,2.20
2023-11-14T20:39:00.961Z,2.27
2023-11-14T20:41:28.630Z,1.90
2023-11-14T20:43:58.225Z,2.30
2023-11-14T20:46:25.680Z,2.30
2023-11-14T20:48:53.229Z,2.27
2023-11-14T20:51:25.338Z,2.40
2023-11-14T20:53:58.151Z,2.97
2023-11-14T20:56:26.886Z,3.17
2023-11-14T20:58:54.616Z,2.33
2023-11-14T21:01:22.307Z,2.80
2023-11-14T21:03:49.393Z,2.60
2023-11-14T21:06:17.316Z,2.73
2023-11-14T21:08:44.162Z,2.40
2023-11-14T21:11:11.597Z,2.50
2023-11-14T21:13:39.878Z,2.33
2023-11-14T21:16:12.995Z,2.43
2023-11-14T21:18:41.688Z,2.43
2023-11-14T21:21:09.490Z,3.60
2023-11-14T21:23:40.048Z,3.77
2023-11-14T21:26:10.867Z,3.47
2023-11-14T21:28:38.235Z,3.17
2023-11-14T21:31:08.486Z,2.97
2023-11-14T21:33:37.070Z,3.00
2023-11-14T21:36:08.176Z,3.33
2023-11-14T21:38:35.287Z,3.20
2023-11-14T21:41:05.060Z,3.57
2023-11-14T21:43:41.656Z,3.57
2023-11-14T21:46:11.220Z,3.43
2023-11-14T21:48:39.014Z,3.77
2023-11-14T21:51:05.859Z,3.67
2023-11-14T21:53:32.803Z,3.80
2023-11-14T21:55:59.588Z,3.87
2023-11-14T21:58:26.331Z,4.33
2023-11-14T22:00:53.497Z,5.10
2023-11-14T22:03:20.682Z,4.60
2023-11-14T22:05:51.966Z,4.77
2023-11-14T22:08:18.969Z,4.70
2023-11-14T22:10:45.921Z,4.73
2023-11-14T22:13:12.722Z,5.10
2023-11-14T22:15:39.669Z,4.87
2023-11-14T22:18:06.962Z,4.27
2023-11-14T22:20:33.957Z,4.30
2023-11-14T22:23:01.129Z,4.23
2023-11-14T22:25:29.782Z,3.83
2023-11-14T22:27:56.469Z,4.40
2023-11-14T22:30:23.171Z,4.07
2023-11-14T22:32:49.932Z,4.13
2023-11-14T22:35:16.825Z,4.50
2023-11-14T22:37:44.513Z,4.33
2023-11-14T22:40:12.241Z,5.07
2023-11-14T22:42:40.710Z,4.03
2023-11-14T22:45:09.185Z,3.93
2023-11-14T22:47:37.650Z,3.63
2023-11-14T22:50:05.048Z,4.53
2023-11-14T22:52:34.754Z,3.33
2023-11-14T22:55:03.786Z,3.53
2023-11-14T22:57:31.326Z,3.77
2023-11-14T22:59:58.099Z,2.97
2023-11-14T23:02:26.424Z,3.73
2023-11-14T23:04:54.454Z,3.30
2023-11-14T23:07:22.517Z,2.87
2023-11-14T23:09:49.796Z,3.13
2023-11-14T23:12:16.778Z,3.50
2023-11-14T23:14:43.650Z,2.73
2023-11-14T23:17:11.663Z,3.67
2023-11-14T23:19:38.480Z,3.73
2023-11-14T23:22:05.657Z,3.43
2023-11-14T23:24:32.437Z,2.83
2023-11-14T23:26:59.269Z,2.97
2023-11-14T23:29:27.185Z,3.07
2023-11-14T23:31:54.061Z,3.07
2023-11-14T23:34:21.476Z,2.60
2023-11-14T23:36:48.254Z,3.80
2023-11-14T23:39:15.094Z,3.60
2023-11-14T23:41:42.130Z,3.60
2023-11-14T23:44:11.165Z,3.53
2023-11-14T23:46:39.047Z,3.13
2023-11-14T23:49:09.249Z,3.33
2023-11-14T23:51:36.284Z,2.90
2023-11-14T23:54:03.058Z,2.80
2023-11-14T23:56:29.820Z,3.70
2023-11-14T23:59:02.598Z,3.07
